Time;durP1;ratioP1;P1;durP2;ratioP2;P2;SDS_P1;SDS_P2;PMS_P1;PMS_P2;Temp;Humidity;BMP_temperature;BMP_pressure;BME280_temperature;BME280_humidity;BME280_pressure;Samples;Min_cycle;Max_cycle;Signal;HPM_P1;HPM_P2
2022/03/23 00:01:34;;;;;;;88.15;46.15;;;;;;;;;;4994906;28;20367;-53
2022/03/23 00:04:00;;;;;;;86.93;46.20;;;;;;;;;;4994764;28;20015;-50
2022/03/23 00:06:27;;;;;;;70.72;38.10;;;;;;;;;;4994250;28;20045;-52
2022/03/23 00:08:53;;;;;;;68.13;37.40;;;;;;;;;;4994454;28;20048;-51
2022/03/23 00:11:20;;;;;;;72.82;38.92;;;;;;;;;;4994060;28;20052;-55
2022/03/23 00:13:46;;;;;;;72.60;39.13;;;;;;;;;;4994477;28;20026;-53
2022/03/23 00:16:13;;;;;;;140.32;66.05;;;;;;;;;;4994596;28;20030;-53
2022/03/23 00:18:40;;;;;;;103.50;53.28;;;;;;;;;;4994015;28;20026;-55
2022/03/23 00:21:06;;;;;;;97.50;50.90;;;;;;;;;;4994298;28;20464;-52
2022/03/23 00:23:32;;;;;;;143.93;73.55;;;;;;;;;;4994288;28;20460;-54
2022/03/23 00:25:59;;;;;;;123.38;65.05;;;;;;;;;;4994331;28;20098;-53
2022/03/23 00:28:26;;;;;;;137.05;75.45;;;;;;;;;;4994380;28;20026;-52
2022/03/23 00:30:53;;;;;;;94.47;50.72;;;;;;;;;;4994443;28;20026;-54
2022/03/23 00:33:21;;;;;;;83.53;43.83;;;;;;;;;;4993803;28;20030;-52
2022/03/23 00:35:48;;;;;;;89.57;48.00;;;;;;;;;;4994429;28;20034;-51
2022/03/23 00:38:15;;;;;;;85.47;46.50;;;;;;;;;;4994417;28;20027;-52
2022/03/23 00:40:44;;;;;;;86.35;47.25;;;;;;;;;;4993672;28;20030;-51
2022/03/23 00:43:11;;;;;;;83.25;45.55;;;;;;;;;;4994777;28;20029;-48
2022/03/23 00:45:38;;;;;;;84.90;43.13;;;;;;;;;;4994147;28;20476;-54
2022/03/23 00:48:04;;;;;;;101.93;55.83;;;;;;;;;;4993986;28;20026;-53
2022/03/23 00:50:31;;;;;;;101.20;53.33;;;;;;;;;;4994089;28;20056;-52
2022/03/23 00:52:57;;;;;;;55.75;30.40;;;;;;;;;;4994486;28;20026;-50
2022/03/23 00:55:24;;;;;;;70.07;36.30;;;;;;;;;;4993560;28;20026;-52
2022/03/23 00:57:50;;;;;;;65.72;35.58;;;;;;;;;;4994323;28;20043;-50
2022/03/23 01:00:17;;;;;;;48.75;24.52;;;;;;;;;;4995838;28;20088;-49
2022/03/23 01:02:45;;;;;;;53.90;28.45;;;;;;;;;;4997807;28;20490;-53
2022/03/23 01:05:11;;;;;;;53.65;27.65;;;;;;;;;;4997796;28;20161;-53
2022/03/23 01:07:38;;;;;;;58.92;28.85;;;;;;;;;;4997677;28;20052;-50
2022/03/23 01:10:05;;;;;;;61.72;32.15;;;;;;;;;;4998013;28;20105;-50
2022/03/23 01:12:31;;;;;;;94.00;48.05;;;;;;;;;;4997973;28;20036;-49
2022/03/23 01:14:58;;;;;;;93.93;47.78;;;;;;;;;;4997581;28;20044;-49
2022/03/23 01:17:24;;;;;;;93.18;48.60;;;;;;;;;;4997893;28;20022;-48
2022/03/23 01:19:51;;;;;;;85.50;43.80;;;;;;;;;;4998444;28;20014;-49
2022/03/23 01:22:17;;;;;;;87.88;45.15;;;;;;;;;;4997237;28;20464;-48
2022/03/23 01:24:44;;;;;;;90.57;44.20;;;;;;;;;;4997479;28;20373;-49
2022/03/23 01:27:10;;;;;;;78.10;39.83;;;;;;;;;;4997710;28;20021;-51
2022/03/23 01:29:37;;;;;;;77.10;38.33;;;;;;;;;;4997256;28;20451;-49
2022/03/23 01:32:03;;;;;;;73.18;37.10;;;;;;;;;;4997364;28;20040;-50
2022/03/23 01:34:30;;;;;;;66.40;35.75;;;;;;;;;;4997363;28;20026;-48
2022/03/23 01:36:56;;;;;;;46.53;22.27;;;;;;;;;;4997036;28;20027;-48
2022/03/23 01:39:22;;;;;;;58.72;27.15;;;;;;;;;;4997541;28;20034;-48
2022/03/23 01:41:48;;;;;;;53.25;25.52;;;;;;;;;;4997587;28;20102;-48
2022/03/23 01:44:19;;;;;;;41.60;20.92;;;;;;;;;;4997185;28;20116;-47
2022/03/23 01:47:02;;;;;;;29.65;17.30;;;;;;;;;;4997708;28;20041;-47
2022/03/23 01:49:28;;;;;;;39.17;17.67;;;;;;;;;;4997448;28;20027;-48
2022/03/23 01:51:54;;;;;;;38.47;18.95;;;;;;;;;;4997194;28;20541;-49
2022/03/23 01:54:21;;;;;;;56.83;28.83;;;;;;;;;;4996940;28;20041;-47
2022/03/23 01:56:49;;;;;;;73.40;37.70;;;;;;;;;;4997190;28;20073;-48
2022/03/23 01:59:16;;;;;;;76.53;39.72;;;;;;;;;;4997150;28;20026;-47
2022/03/23 02:01:43;;;;;;;77.95;39.75;;;;;;;;;;4996804;28;20025;-48
2022/03/23 02:04:09;;;;;;;88.97;41.38;;;;;;;;;;4996362;28;20109;-48
2022/03/23 02:06:35;;;;;;;98.57;48.63;;;;;;;;;;4996884;28;20037;-47
2022/03/23 02:09:02;;;;;;;96.00;48.90;;;;;;;;;;4996942;28;20030;-50
2022/03/23 02:11:30;;;;;;;96.32;47.92;;;;;;;;;;4995402;28;20113;-49
2022/03/23 02:13:57;;;;;;;96.25;46.38;;;;;;;;;;4996793;28;20037;-48
2022/03/23 02:16:23;;;;;;;90.93;42.55;;;;;;;;;;4996724;28;20053;-48
2022/03/23 02:18:49;;;;;;;84.40;41.17;;;;;;;;;;4996392;28;20045;-48
2022/03/23 02:21:16;;;;;;;92.72;47.15;;;;;;;;;;4996450;28;20048;-49
2022/03/23 02:23:42;;;;;;;92.82;45.72;;;;;;;;;;4996496;28;20030;-48
2022/03/23 02:26:09;;;;;;;69.28;34.58;;;;;;;;;;4996377;28;20036;-48
2022/03/23 02:28:36;;;;;;;69.78;35.40;;;;;;;;;;4996814;28;20471;-49
2022/03/23 02:31:04;;;;;;;77.00;37.60;;;;;;;;;;4996595;28;20081;-47
2022/03/23 02:33:30;;;;;;;95.45;46.40;;;;;;;;;;4995860;28;20061;-47
2022/03/23 02:35:56;;;;;;;117.50;53.20;;;;;;;;;;4996550;28;20026;-48
2022/03/23 02:38:22;;;;;;;127.03;59.63;;;;;;;;;;4996137;28;20034;-47
2022/03/23 02:40:49;;;;;;;120.43;58.85;;;;;;;;;;4995401;28;20081;-46
2022/03/23 02:43:16;;;;;;;122.45;59.50;;;;;;;;;;4996731;28;20026;-46
2022/03/23 02:45:42;;;;;;;115.82;57.33;;;;;;;;;;4995861;28;20019;-51
2022/03/23 02:48:09;;;;;;;113.57;51.45;;;;;;;;;;4996017;28;20026;-49
2022/03/23 02:50:35;;;;;;;104.13;51.70;;;;;;;;;;4996118;28;20034;-48
2022/03/23 03:04:14;;;;;;;82.07;42.28;;;;;;;;;;4995846;28;20081;-49
2022/03/23 03:06:40;;;;;;;64.28;31.90;;;;;;;;;;4995617;28;20046;-48
2022/03/23 03:09:06;;;;;;;78.70;38.40;;;;;;;;;;4995900;28;20456;-52
2022/03/23 03:11:32;;;;;;;65.38;36.10;;;;;;;;;;4995474;28;20495;-51
2022/03/23 03:13:59;;;;;;;72.85;35.13;;;;;;;;;;4995230;28;20034;-50
2022/03/23 03:16:26;;;;;;;95.90;42.35;;;;;;;;;;4996307;28;20080;-52
2022/03/23 03:18:52;;;;;;;82.93;41.00;;;;;;;;;;4995646;28;20034;-51
2022/03/23 03:21:18;;;;;;;106.70;51.47;;;;;;;;;;4995354;28;20030;-48
2022/03/23 03:23:45;;;;;;;100.63;50.40;;;;;;;;;;4995220;28;20018;-50
2022/03/23 03:26:12;;;;;;;133.90;64.25;;;;;;;;;;4995050;28;20030;-50
2022/03/23 03:28:39;;;;;;;128.45;61.80;;;;;;;;;;4995223;28;20088;-45
2022/03/23 03:31:07;;;;;;;120.18;57.38;;;;;;;;;;4995183;28;20467;-48
2022/03/23 03:33:33;;;;;;;94.88;46.38;;;;;;;;;;4995385;28;20424;-48
2022/03/23 03:35:59;;;;;;;86.90;43.45;;;;;;;;;;4995087;28;20026;-48
2022/03/23 03:38:26;;;;;;;87.05;42.83;;;;;;;;;;4995272;28;20029;-48
2022/03/23 03:40:53;;;;;;;77.15;40.45;;;;;;;;;;4995313;28;20065;-51
2022/03/23 03:43:20;;;;;;;75.75;38.38;;;;;;;;;;4994528;28;20395;-49
2022/03/23 03:45:46;;;;;;;76.68;39.47;;;;;;;;;;4994902;28;20471;-50
2022/03/23 03:48:13;;;;;;;80.13;37.85;;;;;;;;;;4994528;28;20471;-51
2022/03/23 03:50:39;;;;;;;79.97;39.13;;;;;;;;;;4993676;28;20084;-49
2022/03/23 03:53:07;;;;;;;78.70;37.65;;;;;;;;;;4995053;28;20022;-50
2022/03/23 03:55:34;;;;;;;75.72;36.97;;;;;;;;;;4995048;28;20031;-49
2022/03/23 03:58:00;;;;;;;76.35;40.60;;;;;;;;;;4994627;28;20050;-50
2022/03/23 04:00:26;;;;;;;98.18;50.42;;;;;;;;;;4995030;28;20027;-52
2022/03/23 04:02:53;;;;;;;92.20;45.30;;;;;;;;;;4993310;28;20022;-56
2022/03/23 04:05:19;;;;;;;89.00;43.83;;;;;;;;;;4994821;28;20411;-52
2022/03/23 04:07:45;;;;;;;92.88;42.38;;;;;;;;;;4994549;28;20034;-55
2022/03/23 04:10:15;;;;;;;82.05;37.95;;;;;;;;;;4994450;28;20030;-48
2022/03/23 04:12:41;;;;;;;76.03;35.58;;;;;;;;;;4994672;28;20042;-52
2022/03/23 04:15:08;;;;;;;80.97;37.85;;;;;;;;;;4995058;28;20145;-48
2022/03/23 04:17:34;;;;;;;67.38;34.00;;;;;;;;;;4994071;28;20527;-48
2022/03/23 04:20:00;;;;;;;75.22;35.63;;;;;;;;;;4994612;28;20022;-49
2022/03/23 04:22:26;;;;;;;80.30;36.90;;;;;;;;;;4994635;28;20113;-49
2022/03/23 04:24:52;;;;;;;94.75;40.20;;;;;;;;;;4994241;28;20023;-48
2022/03/23 04:27:18;;;;;;;85.68;38.72;;;;;;;;;;4994497;28;20026;-47
2022/03/23 04:29:45;;;;;;;86.45;39.72;;;;;;;;;;4994206;28;20431;-50
2022/03/23 04:32:12;;;;;;;87.22;40.80;;;;;;;;;;4994038;28;20502;-48
2022/03/23 04:34:38;;;;;;;81.75;38.88;;;;;;;;;;4994008;28;20038;-47
2022/03/23 04:37:04;;;;;;;87.55;39.15;;;;;;;;;;4993170;28;20106;-49
2022/03/23 04:39:31;;;;;;;72.00;36.08;;;;;;;;;;4993777;28;20023;-47
2022/03/23 04:41:58;;;;;;;74.95;34.13;;;;;;;;;;4994384;28;20030;-50
2022/03/23 04:44:24;;;;;;;70.78;33.30;;;;;;;;;;4992695;28;20050;-50
2022/03/23 04:46:50;;;;;;;72.90;34.50;;;;;;;;;;4994134;28;20031;-50
2022/03/23 04:49:16;;;;;;;64.95;32.15;;;;;;;;;;4994444;28;20026;-49
2022/03/23 04:51:42;;;;;;;77.25;33.25;;;;;;;;;;4993545;28;20515;-50
2022/03/23 04:54:08;;;;;;;59.97;32.00;;;;;;;;;;4994298;28;20068;-52
2022/03/23 04:56:34;;;;;;;64.60;31.13;;;;;;;;;;4993747;28;20051;-50
2022/03/23 04:59:01;;;;;;;76.88;37.50;;;;;;;;;;4993858;28;20109;-48
2022/03/23 05:01:27;;;;;;;58.45;29.02;;;;;;;;;;4993652;28;20113;-53
2022/03/23 05:03:57;;;;;;;50.40;26.95;;;;;;;;;;4994122;28;20022;-52
2022/03/23 05:06:23;;;;;;;56.25;27.38;;;;;;;;;;4993394;28;20133;-53
2022/03/23 05:08:50;;;;;;;52.58;26.75;;;;;;;;;;4994025;28;20048;-55
2022/03/23 05:11:16;;;;;;;99.85;44.22;;;;;;;;;;4993903;28;20106;-48
2022/03/23 05:13:42;;;;;;;92.47;39.55;;;;;;;;;;4994036;28;20352;-49
2022/03/23 05:16:08;;;;;;;71.22;34.45;;;;;;;;;;4993118;28;20034;-49
2022/03/23 05:18:34;;;;;;;60.65;28.80;;;;;;;;;;4993582;28;20110;-54
2022/03/23 05:21:01;;;;;;;55.60;29.85;;;;;;;;;;4993138;28;20032;-49
2022/03/23 05:23:27;;;;;;;65.10;34.47;;;;;;;;;;4994159;28;20041;-48
2022/03/23 05:25:53;;;;;;;57.42;30.67;;;;;;;;;;4993774;28;20459;-49
2022/03/23 05:28:19;;;;;;;93.78;45.15;;;;;;;;;;4993594;28;20030;-49
2022/03/23 05:30:45;;;;;;;72.68;36.28;;;;;;;;;;4993850;28;20027;-50
2022/03/23 05:33:12;;;;;;;64.97;33.28;;;;;;;;;;4993538;28;20030;-51
2022/03/23 05:35:38;;;;;;;72.30;35.38;;;;;;;;;;4993387;28;20522;-53
2022/03/23 05:38:04;;;;;;;67.97;34.35;;;;;;;;;;4993481;28;20486;-54
2022/03/23 05:40:30;;;;;;;79.00;36.72;;;;;;;;;;4993202;28;20019;-50
2022/03/23 05:42:57;;;;;;;70.70;35.85;;;;;;;;;;4993830;28;20034;-52
2022/03/23 05:45:23;;;;;;;222.02;99.78;;;;;;;;;;4993927;28;20023;-53
2022/03/23 05:47:52;;;;;;;155.55;71.82;;;;;;;;;;4997360;28;20113;-55
2022/03/23 05:50:19;;;;;;;82.03;42.55;;;;;;;;;;4996918;28;20026;-50
2022/03/23 05:52:45;;;;;;;105.10;53.67;;;;;;;;;;4997112;28;20034;-52
2022/03/23 05:55:11;;;;;;;115.13;57.05;;;;;;;;;;4997034;28;20037;-52
2022/03/23 05:57:37;;;;;;;119.07;57.17;;;;;;;;;;4997215;28;20440;-53
2022/03/23 06:00:07;;;;;;;127.55;61.90;;;;;;;;;;4997243;28;20033;-51
2022/03/23 06:02:33;;;;;;;127.40;62.20;;;;;;;;;;4995544;28;20357;-54
2022/03/23 06:04:59;;;;;;;131.52;62.40;;;;;;;;;;4997342;28;20514;-52
2022/03/23 06:07:25;;;;;;;116.55;56.38;;;;;;;;;;4996803;28;20537;-51
2022/03/23 06:09:51;;;;;;;111.28;55.47;;;;;;;;;;4996567;28;20101;-51
2022/03/23 06:12:18;;;;;;;97.63;50.28;;;;;;;;;;4995301;28;20034;-48
2022/03/23 06:14:44;;;;;;;87.65;43.03;;;;;;;;;;4996177;28;20487;-49
2022/03/23 06:17:13;;;;;;;74.50;39.72;;;;;;;;;;4995900;28;20026;-55
2022/03/23 06:19:40;;;;;;;82.45;44.15;;;;;;;;;;4996397;28;20517;-53
2022/03/23 06:22:06;;;;;;;83.28;43.33;;;;;;;;;;4996311;28;20476;-52
2022/03/23 06:24:32;;;;;;;77.20;41.55;;;;;;;;;;4996410;28;20054;-53
2022/03/23 06:26:59;;;;;;;84.43;41.53;;;;;;;;;;4996822;28;20046;-52
2022/03/23 06:29:25;;;;;;;72.72;38.38;;;;;;;;;;4995681;28;20384;-52
2022/03/23 06:31:51;;;;;;;95.45;51.05;;;;;;;;;;4996547;28;20371;-54
2022/03/23 06:34:18;;;;;;;99.50;52.20;;;;;;;;;;4995850;28;20316;-52
2022/03/23 06:36:44;;;;;;;94.18;51.33;;;;;;;;;;4995879;28;20049;-48
2022/03/23 06:39:10;;;;;;;100.53;54.20;;;;;;;;;;4995830;28;20363;-49
2022/03/23 06:41:36;;;;;;;100.40;54.72;;;;;;;;;;4996347;28;20451;-49
2022/03/23 06:44:02;;;;;;;101.68;52.53;;;;;;;;;;4995773;28;20098;-48
2022/03/23 06:46:28;;;;;;;99.28;52.35;;;;;;;;;;4996389;28;20030;-51
2022/03/23 06:48:55;;;;;;;99.45;49.35;;;;;;;;;;4996352;28;20031;-55
2022/03/23 06:51:21;;;;;;;80.40;46.00;;;;;;;;;;4995628;28;20026;-52
2022/03/23 06:53:47;;;;;;;92.40;47.53;;;;;;;;;;4996187;28;20035;-50
2022/03/23 06:56:13;;;;;;;85.07;45.95;;;;;;;;;;4996063;28;20027;-51
2022/03/23 06:58:39;;;;;;;88.57;47.17;;;;;;;;;;4995281;28;20026;-61
2022/03/23 07:01:05;;;;;;;86.68;45.53;;;;;;;;;;4995796;28;20112;-53
2022/03/23 07:03:31;;;;;;;90.45;46.30;;;;;;;;;;4996030;28;20030;-49
2022/03/23 07:05:58;;;;;;;81.63;45.65;;;;;;;;;;4995347;28;20030;-54
2022/03/23 07:11:08;;;;;;;77.00;40.45;;;;;;;;;;4995624;28;20105;-54
2022/03/23 07:13:35;;;;;;;74.00;41.20;;;;;;;;;;4995480;28;20030;-52
2022/03/23 07:16:01;;;;;;;76.35;40.35;;;;;;;;;;4994584;28;20109;-51
2022/03/23 07:18:27;;;;;;;69.78;38.70;;;;;;;;;;4994457;28;20030;-51
2022/03/23 07:20:53;;;;;;;74.82;38.65;;;;;;;;;;4995114;28;20119;-53
2022/03/23 07:23:20;;;;;;;73.40;40.00;;;;;;;;;;4995522;28;20109;-50
2022/03/23 07:25:46;;;;;;;75.70;41.55;;;;;;;;;;4994697;28;20018;-49
2022/03/23 07:28:12;;;;;;;73.22;39.70;;;;;;;;;;4995778;28;20084;-48
2022/03/23 07:30:40;;;;;;;61.38;37.53;;;;;;;;;;4995459;28;20030;-52
2022/03/23 07:33:06;;;;;;;74.65;38.70;;;;;;;;;;4994797;28;20113;-49
2022/03/23 07:35:33;;;;;;;73.68;39.72;;;;;;;;;;4995088;28;20049;-50
2022/03/23 07:37:59;;;;;;;69.03;37.83;;;;;;;;;;4995247;28;20030;-48
2022/03/23 07:40:25;;;;;;;70.45;38.97;;;;;;;;;;4995045;28;20028;-53
2022/03/23 07:42:51;;;;;;;76.97;38.80;;;;;;;;;;4995618;28;20109;-54
2022/03/23 07:45:18;;;;;;;85.93;39.05;;;;;;;;;;4995329;28;20080;-52
2022/03/23 07:47:44;;;;;;;68.53;37.30;;;;;;;;;;4994937;28;20068;-50
2022/03/23 07:50:10;;;;;;;63.40;37.08;;;;;;;;;;4995458;28;20026;-54
2022/03/23 07:52:36;;;;;;;59.83;31.40;;;;;;;;;;4995065;28;20031;-52
2022/03/23 07:55:03;;;;;;;54.88;28.98;;;;;;;;;;4994517;28;20453;-52
2022/03/23 07:57:30;;;;;;;46.88;26.55;;;;;;;;;;4993548;28;20476;-49
2022/03/23 07:59:56;;;;;;;49.97;26.50;;;;;;;;;;4995070;28;20455;-49
2022/03/23 08:02:24;;;;;;;56.17;27.10;;;;;;;;;;4994660;28;20113;-49
2022/03/23 08:04:50;;;;;;;56.33;27.63;;;;;;;;;;4994599;28;20026;-49
2022/03/23 08:07:16;;;;;;;53.28;25.63;;;;;;;;;;4994475;28;20407;-52
2022/03/23 08:09:43;;;;;;;73.32;35.78;;;;;;;;;;4993905;28;20029;-53
2022/03/23 08:12:09;;;;;;;57.10;27.27;;;;;;;;;;4993580;28;20025;-49
2022/03/23 08:14:35;;;;;;;42.55;22.58;;;;;;;;;;4993831;28;20035;-49
2022/03/23 08:17:01;;;;;;;43.28;19.17;;;;;;;;;;4994307;28;20030;-50
2022/03/23 08:19:28;;;;;;;35.25;19.95;;;;;;;;;;4993905;28;20027;-50
2022/03/23 08:21:54;;;;;;;44.78;21.90;;;;;;;;;;4992808;28;20141;-49
2022/03/23 08:24:20;;;;;;;39.90;21.73;;;;;;;;;;4992924;28;20030;-54
2022/03/23 08:26:46;;;;;;;44.40;23.50;;;;;;;;;;4992928;28;20487;-52
2022/03/23 08:29:13;;;;;;;48.10;24.00;;;;;;;;;;4993109;28;20416;-51
2022/03/23 08:31:39;;;;;;;46.95;23.33;;;;;;;;;;4994261;28;20022;-51
2022/03/23 08:34:06;;;;;;;45.60;19.50;;;;;;;;;;4994325;28;20031;-49
2022/03/23 08:36:33;;;;;;;30.05;15.00;;;;;;;;;;4993604;28;20049;-47
2022/03/23 08:38:59;;;;;;;25.45;12.52;;;;;;;;;;4993168;28;20102;-49
2022/03/23 08:41:27;;;;;;;35.05;15.30;;;;;;;;;;4993400;28;20100;-50
2022/03/23 08:43:53;;;;;;;25.90;13.35;;;;;;;;;;4993093;28;20037;-51
2022/03/23 08:46:20;;;;;;;25.45;11.10;;;;;;;;;;4993429;28;20069;-51
2022/03/23 08:48:46;;;;;;;30.20;13.48;;;;;;;;;;4993722;28;20105;-51
2022/03/23 08:51:12;;;;;;;30.08;13.52;;;;;;;;;;4993402;28;20026;-55
2022/03/23 08:53:42;;;;;;;34.40;14.68;;;;;;;;;;4993933;28;20038;-49
2022/03/23 08:56:10;;;;;;;31.73;15.30;;;;;;;;;;4994001;28;20019;-49
2022/03/23 08:58:37;;;;;;;22.88;10.65;;;;;;;;;;4994412;28;20367;-53
2022/03/23 09:01:03;;;;;;;33.53;11.68;;;;;;;;;;4993981;28;20037;-47
2022/03/23 09:03:29;;;;;;;22.13;11.18;;;;;;;;;;4993683;28;20041;-50
2022/03/23 09:05:55;;;;;;;26.15;12.98;;;;;;;;;;4993988;28;20034;-48
2022/03/23 09:08:22;;;;;;;25.92;11.40;;;;;;;;;;4994002;28;20530;-47
2022/03/23 09:10:48;;;;;;;31.13;12.88;;;;;;;;;;4994008;28;20111;-50
2022/03/23 09:13:14;;;;;;;30.27;15.25;;;;;;;;;;4994081;28;20030;-50
2022/03/23 09:15:40;;;;;;;26.00;12.23;;;;;;;;;;4993993;28;20030;-48
2022/03/23 09:18:07;;;;;;;22.58;8.27;;;;;;;;;;4993638;28;20113;-52
2022/03/23 09:20:34;;;;;;;24.58;14.70;;;;;;;;;;4994497;28;20019;-48
2022/03/23 09:23:00;;;;;;;24.67;10.75;;;;;;;;;;4997915;28;20113;-53
2022/03/23 09:25:27;;;;;;;17.55;10.65;;;;;;;;;;4997195;28;20033;-50
2022/03/23 09:27:53;;;;;;;20.88;10.70;;;;;;;;;;4998399;28;20015;-55
2022/03/23 09:30:20;;;;;;;19.85;10.18;;;;;;;;;;4998055;28;20027;-54
2022/03/23 09:32:47;;;;;;;24.73;11.30;;;;;;;;;;4997263;28;20038;-49
2022/03/23 09:35:14;;;;;;;26.90;12.07;;;;;;;;;;4997922;28;20023;-51
2022/03/23 09:37:50;;;;;;;25.88;11.90;;;;;;;;;;4997678;28;20018;-50
2022/03/23 09:40:23;;;;;;;19.75;10.20;;;;;;;;;;4997246;28;20033;-53
2022/03/23 09:42:49;;;;;;;31.23;15.52;;;;;;;;;;4997500;28;20494;-53
2022/03/23 09:45:29;;;;;;;24.45;12.40;;;;;;;;;;4996861;28;20031;-52
2022/03/23 09:47:56;;;;;;;20.55;9.50;;;;;;;;;;4997737;28;20488;-52
2022/03/23 09:50:22;;;;;;;18.30;9.65;;;;;;;;;;4997422;28;20023;-51
2022/03/23 09:52:48;;;;;;;20.90;9.13;;;;;;;;;;4996965;28;20030;-48
2022/03/23 09:55:14;;;;;;;20.17;9.07;;;;;;;;;;4997055;28;20399;-47
2022/03/23 09:57:40;;;;;;;19.02;8.15;;;;;;;;;;4997401;28;20386;-48
2022/03/23 10:00:10;;;;;;;17.73;9.07;;;;;;;;;;4996919;28;20026;-52
2022/03/23 10:02:39;;;;;;;14.98;7.03;;;;;;;;;;4996903;28;20045;-48
2022/03/23 10:05:24;;;;;;;13.23;7.00;;;;;;;;;;4997381;28;20598;-49
2022/03/23 10:07:50;;;;;;;17.77;7.65;;;;;;;;;;4996415;28;20047;-50
2022/03/23 10:10:17;;;;;;;15.90;6.35;;;;;;;;;;4996798;28;20430;-53
2022/03/23 10:13:01;;;;;;;16.55;6.80;;;;;;;;;;4996849;28;20039;-48
2022/03/23 10:15:46;;;;;;;15.80;7.53;;;;;;;;;;4996668;28;20029;-49
2022/03/23 10:18:21;;;;;;;24.15;12.95;;;;;;;;;;4996971;28;20076;-56
2022/03/23 10:20:47;;;;;;;19.73;7.32;;;;;;;;;;4996647;28;20022;-51
2022/03/23 10:23:14;;;;;;;16.70;6.63;;;;;;;;;;4997092;28;20378;-49
2022/03/23 10:25:40;;;;;;;15.43;5.88;;;;;;;;;;4996522;28;20109;-50
2022/03/23 10:28:17;;;;;;;10.85;4.10;;;;;;;;;;4996597;28;20018;-49
2022/03/23 10:30:44;;;;;;;15.00;4.40;;;;;;;;;;4996510;28;20147;-50
2022/03/23 10:33:20;;;;;;;13.20;4.68;;;;;;;;;;4995516;28;20043;-52
2022/03/23 10:35:47;;;;;;;13.27;4.57;;;;;;;;;;4996034;28;20022;-49
2022/03/23 10:38:17;;;;;;;11.40;4.68;;;;;;;;;;4997057;28;20477;-49
2022/03/23 10:40:44;;;;;;;13.77;5.30;;;;;;;;;;4996446;28;20026;-50
2022/03/23 10:43:11;;;;;;;18.35;5.82;;;;;;;;;;4995793;28;20072;-51
2022/03/23 10:45:37;;;;;;;12.32;4.65;;;;;;;;;;4996405;28;20034;-56
2022/03/23 10:48:11;;;;;;;17.02;7.65;;;;;;;;;;4996816;28;20054;-52
2022/03/23 10:50:38;;;;;;;9.20;5.15;;;;;;;;;;4996969;28;20034;-51
2022/03/23 10:53:06;;;;;;;10.75;5.32;;;;;;;;;;4996158;28;20026;-53
2022/03/23 10:55:36;;;;;;;12.00;4.95;;;;;;;;;;4995514;28;20038;-54
2022/03/23 10:58:02;;;;;;;12.70;5.22;;;;;;;;;;4996136;28;20050;-51
2022/03/23 11:00:34;;;;;;;10.82;5.00;;;;;;;;;;4996203;28;20029;-52
2022/03/23 11:03:01;;;;;;;14.23;5.97;;;;;;;;;;4995982;28;20387;-52
2022/03/23 11:05:37;;;;;;;12.85;6.00;;;;;;;;;;4995777;28;20491;-51
2022/03/23 11:08:08;;;;;;;12.18;4.70;;;;;;;;;;4995920;28;20033;-50
2022/03/23 11:16:11;;;;;;;13.10;5.60;;;;;;;;;;4995261;28;20085;-52
2022/03/23 11:18:38;;;;;;;8.82;5.15;;;;;;;;;;4993568;28;20038;-53
2022/03/23 11:21:04;;;;;;;12.10;5.15;;;;;;;;;;4993337;28;20092;-50
2022/03/23 11:23:31;;;;;;;16.40;5.85;;;;;;;;;;4993253;28;20048;-55
2022/03/23 11:25:59;;;;;;;17.85;6.38;;;;;;;;;;4993562;28;20030;-55
2022/03/23 11:28:26;;;;;;;10.07;5.63;;;;;;;;;;4993289;28;20023;-48
2022/03/23 11:30:53;;;;;;;14.23;6.18;;;;;;;;;;4993078;28;20352;-53
2022/03/23 11:33:22;;;;;;;13.77;7.05;;;;;;;;;;4994704;28;20030;-49
2022/03/23 11:35:50;;;;;;;12.38;6.75;;;;;;;;;;4995733;28;20022;-50
2022/03/23 11:38:26;;;;;;;13.35;5.65;;;;;;;;;;4995342;28;20033;-50
2022/03/23 11:40:52;;;;;;;18.58;6.07;;;;;;;;;;4995312;28;20041;-48
2022/03/23 11:43:19;;;;;;;10.63;6.07;;;;;;;;;;4995065;28;20102;-52
2022/03/23 11:45:47;;;;;;;13.32;6.13;;;;;;;;;;4994774;28;20022;-52
2022/03/23 11:48:20;;;;;;;9.77;5.78;;;;;;;;;;4995420;28;20058;-49
2022/03/23 11:50:55;;;;;;;12.77;6.25;;;;;;;;;;4995431;28;20022;-54
2022/03/23 11:53:40;;;;;;;15.45;6.03;;;;;;;;;;4994768;28;20034;-49
2022/03/23 11:56:08;;;;;;;12.02;5.07;;;;;;;;;;4995229;28;20026;-49
2022/03/23 11:58:38;;;;;;;12.65;5.78;;;;;;;;;;4994578;28;20037;-54
2022/03/23 12:01:12;;;;;;;14.65;6.38;;;;;;;;;;4995378;28;20038;-51
2022/03/23 12:03:41;;;;;;;22.40;12.52;;;;;;;;;;4995230;28;20030;-56
2022/03/23 12:06:11;;;;;;;11.65;5.82;;;;;;;;;;4994510;28;20085;-53
2022/03/23 12:08:45;;;;;;;14.73;7.03;;;;;;;;;;4995439;28;20109;-55
2022/03/23 12:11:31;;;;;;;20.00;7.10;;;;;;;;;;4994788;28;20362;-55
2022/03/23 12:13:58;;;;;;;21.50;8.65;;;;;;;;;;4994495;28;20109;-52
2022/03/23 12:16:42;;;;;;;16.92;7.15;;;;;;;;;;4995043;28;20026;-55
2022/03/23 12:19:10;;;;;;;13.07;5.95;;;;;;;;;;4994400;28;20080;-55
2022/03/23 12:21:44;;;;;;;11.82;6.20;;;;;;;;;;4994947;28;20030;-50
2022/03/23 12:24:12;;;;;;;15.88;7.38;;;;;;;;;;4994734;28;20018;-50
2022/03/23 12:26:44;;;;;;;10.02;6.00;;;;;;;;;;4994297;28;20030;-52
2022/03/23 12:29:21;;;;;;;16.42;6.63;;;;;;;;;;4994748;28;20109;-49
2022/03/23 12:31:47;;;;;;;11.30;5.43;;;;;;;;;;4994273;28;20030;-51
2022/03/23 12:34:26;;;;;;;15.32;6.40;;;;;;;;;;4993944;28;20029;-52
2022/03/23 12:36:57;;;;;;;11.82;6.43;;;;;;;;;;4994534;28;20471;-56
2022/03/23 12:39:24;;;;;;;14.60;6.63;;;;;;;;;;4994746;28;20031;-55
2022/03/23 12:41:50;;;;;;;13.82;6.18;;;;;;;;;;4993885;28;20096;-53
2022/03/23 12:44:16;;;;;;;13.07;6.25;;;;;;;;;;4994966;28;20030;-58
2022/03/23 12:46:46;;;;;;;12.60;5.60;;;;;;;;;;4994053;28;20539;-54
2022/03/23 13:00:25;;;;;;;13.85;6.25;;;;;;;;;;5000529;28;20065;-52
2022/03/23 13:03:12;;;;;;;11.55;5.53;;;;;;;;;;5000174;28;20053;-54
2022/03/23 13:05:58;;;;;;;15.98;6.70;;;;;;;;;;4960912;28;20061;-52
2022/03/23 13:08:30;;;;;;;19.30;8.30;;;;;;;;;;4960962;28;20535;-54
2022/03/23 13:11:22;;;;;;;15.10;5.88;;;;;;;;;;5000809;28;20475;-54
2022/03/23 13:13:50;;;;;;;14.15;6.25;;;;;;;;;;4996970;28;20091;-56
2022/03/23 13:16:26;;;;;;;13.02;6.40;;;;;;;;;;5000094;28;20479;-56
2022/03/23 13:18:57;;;;;;;13.23;6.20;;;;;;;;;;5000471;28;20081;-52
2022/03/23 13:21:24;;;;;;;13.85;5.82;;;;;;;;;;5000726;28;20523;-54
2022/03/23 13:23:52;;;;;;;12.20;5.35;;;;;;;;;;5000127;28;20035;-55
2022/03/23 13:26:20;;;;;;;11.57;6.22;;;;;;;;;;5000650;28;20026;-57
2022/03/23 13:28:50;;;;;;;12.27;5.65;;;;;;;;;;5000087;28;20030;-52
2022/03/23 13:31:18;;;;;;;22.63;6.88;;;;;;;;;;5000052;28;20423;-57
2022/03/23 13:33:45;;;;;;;12.25;5.30;;;;;;;;;;5000636;28;20027;-56
2022/03/23 13:36:14;;;;;;;12.90;5.22;;;;;;;;;;4998766;28;20475;-54
2022/03/23 13:38:41;;;;;;;13.90;5.57;;;;;;;;;;5000561;28;20054;-56
2022/03/23 13:43:53;;;;;;;11.43;5.30;;;;;;;;;;5000067;28;20081;-55
2022/03/23 13:46:20;;;;;;;16.00;5.53;;;;;;;;;;5000322;28;20018;-57
2022/03/23 13:48:53;;;;;;;12.90;5.82;;;;;;;;;;5000358;28;20026;-56
2022/03/23 13:51:20;;;;;;;12.27;5.45;;;;;;;;;;4999904;28;20034;-55
2022/03/23 13:53:48;;;;;;;12.25;5.18;;;;;;;;;;5000325;28;20030;-56
2022/03/23 13:56:17;;;;;;;11.07;5.18;;;;;;;;;;5000003;28;20027;-57
2022/03/23 13:58:44;;;;;;;11.38;4.43;;;;;;;;;;5000205;28;20381;-55
2022/03/23 14:01:11;;;;;;;13.93;5.85;;;;;;;;;;4999829;28;20034;-55
2022/03/23 14:03:37;;;;;;;17.10;5.55;;;;;;;;;;5000581;28;20034;-55
2022/03/23 14:06:03;;;;;;;9.30;4.53;;;;;;;;;;4999976;28;20029;-56
2022/03/23 14:08:31;;;;;;;14.95;5.25;;;;;;;;;;4997526;28;20034;-54
2022/03/23 14:10:58;;;;;;;14.80;4.50;;;;;;;;;;4997811;28;20057;-55
2022/03/23 14:13:28;;;;;;;9.90;4.45;;;;;;;;;;4996702;28;20069;-55
2022/03/23 14:15:56;;;;;;;9.48;4.07;;;;;;;;;;4997323;28;20065;-53
2022/03/23 14:18:23;;;;;;;8.98;4.72;;;;;;;;;;4996569;28;20098;-53
2022/03/23 14:20:53;;;;;;;10.23;4.75;;;;;;;;;;4996801;28;20022;-56
2022/03/23 14:23:21;;;;;;;14.63;5.67;;;;;;;;;;4997097;28;20018;-54
2022/03/23 14:25:50;;;;;;;13.82;6.03;;;;;;;;;;4995840;28;20252;-56
2022/03/23 14:28:23;;;;;;;12.43;4.78;;;;;;;;;;4996715;28;20061;-54
2022/03/23 14:30:55;;;;;;;11.82;5.20;;;;;;;;;;4997117;28;20022;-56
2022/03/23 14:33:22;;;;;;;11.63;4.47;;;;;;;;;;4996631;28;20352;-52
2022/03/23 14:35:49;;;;;;;15.68;5.15;;;;;;;;;;4996653;28;20037;-54
2022/03/23 14:38:16;;;;;;;10.55;4.70;;;;;;;;;;4996537;28;20479;-55
2022/03/23 14:40:47;;;;;;;12.05;4.40;;;;;;;;;;4996104;28;20073;-52
2022/03/23 14:43:26;;;;;;;14.88;4.45;;;;;;;;;;4996504;28;20099;-57
2022/03/23 14:45:53;;;;;;;9.57;4.07;;;;;;;;;;4996450;28;20026;-55
2022/03/23 14:48:26;;;;;;;8.50;4.10;;;;;;;;;;4995933;28;20026;-54
2022/03/23 14:50:57;;;;;;;10.15;4.57;;;;;;;;;;4996193;28;20022;-54
2022/03/23 14:53:25;;;;;;;13.10;4.93;;;;;;;;;;4996106;28;20026;-54
2022/03/23 14:55:52;;;;;;;15.80;6.55;;;;;;;;;;4996261;28;20022;-55
2022/03/23 14:58:31;;;;;;;11.95;5.90;;;;;;;;;;4996669;28;20054;-55